sensor_id;sensor_type;location;lat;lon;timestamp;P1;durP1;ratioP1;P2;durP2;ratioP2
79371;SDS011;68914;51.262;6.802;2023-07-29T00:00:40;6.32;;;3.13;;
79371;SDS011;68914;51.262;6.802;2023-07-29T00:01:41;7.33;;;3.10;;
79371;SDS011;68914;51.262;6.802;2023-07-29T00:02:42;6.22;;;3.40;;
79371;SDS011;68914;51.262;6.802;2023-07-29T00:03:42;7.43;;;3.10;;
79371;SDS011;68914;51.262;6.802;2023-07-29T00:04:43;6.05;;;3.05;;
79371;SDS011;68914;51.262;6.802;2023-07-29T00:05:44;6.80;;;3.40;;
79371;SDS011;68914;51.262;6.802;2023-07-29T00:06:44;5.90;;;3.20;;
79371;SDS011;68914;51.262;6.802;2023-07-29T00:07:45;6.82;;;3.50;;
79371;SDS011;68914;51.262;6.802;2023-07-29T00:08:45;6.80;;;3.30;;
79371;SDS011;68914;51.262;6.802;2023-07-29T00:09:46;8.15;;;3.55;;
79371;SDS011;68914;51.262;6.802;2023-07-29T00:10:47;6.20;;;2.90;;
79371;SDS011;68914;51.262;6.802;2023-07-29T00:11:47;6.90;;;3.20;;
79371;SDS011;68914;51.262;6.802;2023-07-29T00:12:48;6.60;;;3.50;;
79371;SDS011;68914;51.262;6.802;2023-07-29T00:13:49;6.97;;;3.22;;
79371;SDS011;68914;51.262;6.802;2023-07-29T00:14:51;7.30;;;3.38;;
79371;SDS011;68914;51.262;6.802;2023-07-29T00:15:53;9.93;;;3.50;;
79371;SDS011;68914;51.262;6.802;2023-07-29T00:16:55;7.22;;;3.45;;
79371;SDS011;68914;51.262;6.802;2023-07-29T00:17:56;7.10;;;3.50;;
79371;SDS011;68914;51.262;6.802;2023-07-29T00:18:57;7.03;;;3.30;;
79371;SDS011;68914;51.262;6.802;2023-07-29T00:19:57;7.03;;;3.35;;
79371;SDS011;68914;51.262;6.802;2023-07-29T00:20:58;6.37;;;3.10;;
79371;SDS011;68914;51.262;6.802;2023-07-29T00:21:58;7.55;;;3.33;;
79371;SDS011;68914;51.262;6.802;2023-07-29T00:22:59;7.20;;;3.30;;
79371;SDS011;68914;51.262;6.802;2023-07-29T00:24:01;6.25;;;3.50;;
79371;SDS011;68914;51.262;6.802;2023-07-29T00:25:02;6.60;;;3.10;;
79371;SDS011;68914;51.262;6.802;2023-07-29T00:26:03;8.05;;;3.20;;
79371;SDS011;68914;51.262;6.802;2023-07-29T00:27:03;5.90;;;3.40;;
79371;SDS011;68914;51.262;6.802;2023-07-29T00:28:04;8.05;;;3.55;;
79371;SDS011;68914;51.262;6.802;2023-07-29T00:29:05;6.90;;;3.60;;
79371;SDS011;68914;51.262;6.802;2023-07-29T00:30:06;7.05;;;3.50;;
79371;SDS011;68914;51.262;6.802;2023-07-29T00:31:07;7.20;;;3.47;;
79371;SDS011;68914;51.262;6.802;2023-07-29T00:32:08;7.75;;;3.45;;
79371;SDS011;68914;51.262;6.802;2023-07-29T00:33:09;7.07;;;3.70;;
79371;SDS011;68914;51.262;6.802;2023-07-29T00:34:09;6.68;;;3.60;;
79371;SDS011;68914;51.262;6.802;2023-07-29T00:35:10;6.67;;;3.47;;
79371;SDS011;68914;51.262;6.802;2023-07-29T00:36:11;7.65;;;3.75;;
79371;SDS011;68914;51.262;6.802;2023-07-29T00:37:12;7.72;;;3.90;;
79371;SDS011;68914;51.262;6.802;2023-07-29T00:38:12;8.23;;;3.80;;
79371;SDS011;68914;51.262;6.802;2023-07-29T00:39:13;6.75;;;3.70;;
79371;SDS011;68914;51.262;6.802;2023-07-29T00:40:15;8.15;;;4.07;;
79371;SDS011;68914;51.262;6.802;2023-07-29T00:41:22;7.18;;;3.72;;
79371;SDS011;68914;51.262;6.802;2023-07-29T00:42:23;8.70;;;3.97;;
79371;SDS011;68914;51.262;6.802;2023-07-29T00:43:23;7.93;;;3.90;;
79371;SDS011;68914;51.262;6.802;2023-07-29T00:44:24;7.43;;;3.95;;
79371;SDS011;68914;51.262;6.802;2023-07-29T00:45:25;6.53;;;3.80;;
79371;SDS011;68914;51.262;6.802;2023-07-29T00:46:27;7.90;;;3.83;;
79371;SDS011;68914;51.262;6.802;2023-07-29T00:47:29;8.35;;;4.05;;
79371;SDS011;68914;51.262;6.802;2023-07-29T00:48:29;9.07;;;3.95;;
79371;SDS011;68914;51.262;6.802;2023-07-29T00:49:30;8.20;;;4.07;;
79371;SDS011;68914;51.262;6.802;2023-07-29T00:50:32;8.90;;;4.30;;
79371;SDS011;68914;51.262;6.802;2023-07-29T00:51:34;7.72;;;4.13;;
79371;SDS011;68914;51.262;6.802;2023-07-29T00:52:35;8.05;;;3.95;;
79371;SDS011;68914;51.262;6.802;2023-07-29T00:53:35;7.40;;;3.90;;
79371;SDS011;68914;51.262;6.802;2023-07-29T00:54:39;8.48;;;4.28;;
79371;SDS011;68914;51.262;6.802;2023-07-29T00:55:41;7.57;;;4.00;;
79371;SDS011;68914;51.262;6.802;2023-07-29T00:56:42;8.63;;;3.97;;
79371;SDS011;68914;51.262;6.802;2023-07-29T00:57:43;8.40;;;4.20;;
79371;SDS011;68914;51.262;6.802;2023-07-29T00:58:48;8.23;;;4.55;;
79371;SDS011;68914;51.262;6.802;2023-07-29T00:59:49;8.80;;;4.38;;
79371;SDS011;68914;51.262;6.802;2023-07-29T01:00:50;9.63;;;4.45;;
79371;SDS011;68914;51.262;6.802;2023-07-29T01:01:50;9.53;;;4.30;;
79371;SDS011;68914;51.262;6.802;2023-07-29T01:02:52;8.60;;;4.43;;
79371;SDS011;68914;51.262;6.802;2023-07-29T01:03:54;9.23;;;4.45;;
79371;SDS011;68914;51.262;6.802;2023-07-29T01:04:57;8.50;;;4.40;;
79371;SDS011;68914;51.262;6.802;2023-07-29T01:06:01;8.10;;;4.18;;
79371;SDS011;68914;51.262;6.802;2023-07-29T01:07:23;9.80;;;4.55;;
79371;SDS011;68914;51.262;6.802;2023-07-29T01:08:38;8.20;;;4.45;;
79371;SDS011;68914;51.262;6.802;2023-07-29T01:15:58;8.43;;;4.95;;
79371;SDS011;68914;51.262;6.802;2023-07-29T01:17:04;10.95;;;5.07;;
79371;SDS011;68914;51.262;6.802;2023-07-29T01:18:09;9.60;;;4.82;;
79371;SDS011;68914;51.262;6.802;2023-07-29T01:20:26;9.23;;;4.80;;
79371;SDS011;68914;51.262;6.802;2023-07-29T01:21:29;10.25;;;4.70;;
79371;SDS011;68914;51.262;6.802;2023-07-29T01:22:34;9.50;;;4.87;;
79371;SDS011;68914;51.262;6.802;2023-07-29T01:23:36;9.15;;;4.88;;
79371;SDS011;68914;51.262;6.802;2023-07-29T01:24:38;9.35;;;5.30;;
79371;SDS011;68914;51.262;6.802;2023-07-29T01:25:39;9.88;;;4.78;;
79371;SDS011;68914;51.262;6.802;2023-07-29T01:26:40;9.98;;;4.90;;
79371;SDS011;68914;51.262;6.802;2023-07-29T01:27:45;8.90;;;4.93;;
79371;SDS011;68914;51.262;6.802;2023-07-29T01:28:47;9.25;;;4.93;;
79371;SDS011;68914;51.262;6.802;2023-07-29T01:29:48;8.60;;;4.70;;
79371;SDS011;68914;51.262;6.802;2023-07-29T01:30:49;9.15;;;4.78;;
79371;SDS011;68914;51.262;6.802;2023-07-29T01:31:54;9.75;;;4.80;;
79371;SDS011;68914;51.262;6.802;2023-07-29T01:33:11;8.88;;;4.72;;
79371;SDS011;68914;51.262;6.802;2023-07-29T01:34:29;8.18;;;4.90;;
79371;SDS011;68914;51.262;6.802;2023-07-29T01:35:37;8.57;;;4.97;;
79371;SDS011;68914;51.262;6.802;2023-07-29T01:36:43;11.00;;;4.78;;
79371;SDS011;68914;51.262;6.802;2023-07-29T01:37:48;9.20;;;4.43;;
79371;SDS011;68914;51.262;6.802;2023-07-29T01:38:52;9.15;;;4.47;;
79371;SDS011;68914;51.262;6.802;2023-07-29T01:39:55;7.63;;;4.50;;
79371;SDS011;68914;51.262;6.802;2023-07-29T01:41:00;8.82;;;4.30;;
79371;SDS011;68914;51.262;6.802;2023-07-29T01:42:02;7.88;;;4.40;;
79371;SDS011;68914;51.262;6.802;2023-07-29T01:43:03;8.18;;;4.45;;
79371;SDS011;68914;51.262;6.802;2023-07-29T01:44:04;7.63;;;4.55;;
79371;SDS011;68914;51.262;6.802;2023-07-29T01:45:06;10.93;;;4.50;;
79371;SDS011;68914;51.262;6.802;2023-07-29T01:46:07;8.20;;;4.70;;
79371;SDS011;68914;51.262;6.802;2023-07-29T01:47:08;9.35;;;4.60;;
79371;SDS011;68914;51.262;6.802;2023-07-29T01:48:09;9.23;;;4.50;;
79371;SDS011;68914;51.262;6.802;2023-07-29T01:49:09;10.50;;;4.88;;
79371;SDS011;68914;51.262;6.802;2023-07-29T01:50:10;8.80;;;4.50;;
79371;SDS011;68914;51.262;6.802;2023-07-29T01:51:11;8.10;;;4.30;;
79371;SDS011;68914;51.262;6.802;2023-07-29T01:52:12;7.55;;;3.97;;
79371;SDS011;68914;51.262;6.802;2023-07-29T01:53:13;8.97;;;4.40;;
79371;SDS011;68914;51.262;6.802;2023-07-29T01:54:14;8.55;;;4.68;;
79371;SDS011;68914;51.262;6.802;2023-07-29T01:55:14;7.60;;;3.97;;
79371;SDS011;68914;51.262;6.802;2023-07-29T01:56:15;9.57;;;4.63;;
79371;SDS011;68914;51.262;6.802;2023-07-29T01:57:24;9.38;;;4.30;;
79371;SDS011;68914;51.262;6.802;2023-07-29T01:58:25;8.15;;;4.40;;
79371;SDS011;68914;51.262;6.802;2023-07-29T01:59:26;8.00;;;4.43;;
79371;SDS011;68914;51.262;6.802;2023-07-29T02:00:26;8.10;;;4.05;;
79371;SDS011;68914;51.262;6.802;2023-07-29T02:01:27;8.15;;;4.00;;
79371;SDS011;68914;51.262;6.802;2023-07-29T02:02:27;8.53;;;4.37;;
79371;SDS011;68914;51.262;6.802;2023-07-29T02:03:28;8.63;;;4.32;;
79371;SDS011;68914;51.262;6.802;2023-07-29T02:04:29;9.17;;;4.57;;
79371;SDS011;68914;51.262;6.802;2023-07-29T02:05:29;8.35;;;4.00;;
79371;SDS011;68914;51.262;6.802;2023-07-29T02:06:30;9.97;;;4.50;;
79371;SDS011;68914;51.262;6.802;2023-07-29T02:07:31;8.15;;;4.13;;
79371;SDS011;68914;51.262;6.802;2023-07-29T02:08:31;7.10;;;4.13;;
79371;SDS011;68914;51.262;6.802;2023-07-29T02:09:32;11.45;;;4.07;;
79371;SDS011;68914;51.262;6.802;2023-07-29T02:10:33;7.67;;;3.93;;
79371;SDS011;68914;51.262;6.802;2023-07-29T02:11:33;7.45;;;3.90;;
79371;SDS011;68914;51.262;6.802;2023-07-29T02:12:34;9.25;;;4.55;;
79371;SDS011;68914;51.262;6.802;2023-07-29T02:13:36;8.43;;;4.30;;
79371;SDS011;68914;51.262;6.802;2023-07-29T02:14:36;10.70;;;4.63;;
79371;SDS011;68914;51.262;6.802;2023-07-29T02:15:37;8.70;;;4.20;;
79371;SDS011;68914;51.262;6.802;2023-07-29T02:16:38;7.13;;;4.13;;
79371;SDS011;68914;51.262;6.802;2023-07-29T02:17:40;7.40;;;4.28;;
79371;SDS011;68914;51.262;6.802;2023-07-29T02:18:42;7.85;;;4.20;;
79371;SDS011;68914;51.262;6.802;2023-07-29T02:19:43;7.40;;;4.10;;
79371;SDS011;68914;51.262;6.802;2023-07-29T02:20:43;9.50;;;4.50;;
79371;SDS011;68914;51.262;6.802;2023-07-29T02:21:49;7.20;;;4.25;;
79371;SDS011;68914;51.262;6.802;2023-07-29T02:22:50;8.10;;;4.15;;
79371;SDS011;68914;51.262;6.802;2023-07-29T02:23:50;7.53;;;4.27;;
79371;SDS011;68914;51.262;6.802;2023-07-29T02:24:51;7.18;;;4.30;;
79371;SDS011;68914;51.262;6.802;2023-07-29T02:25:52;8.13;;;4.30;;
79371;SDS011;68914;51.262;6.802;2023-07-29T02:26:52;8.88;;;4.22;;
79371;SDS011;68914;51.262;6.802;2023-07-29T02:27:53;7.90;;;4.40;;
79371;SDS011;68914;51.262;6.802;2023-07-29T02:28:54;8.00;;;4.00;;
79371;SDS011;68914;51.262;6.802;2023-07-29T02:29:54;7.82;;;4.10;;
79371;SDS011;68914;51.262;6.802;2023-07-29T02:32:22;9.18;;;4.00;;
79371;SDS011;68914;51.262;6.802;2023-07-29T02:33:22;7.75;;;4.10;;
79371;SDS011;68914;51.262;6.802;2023-07-29T02:34:23;7.28;;;4.10;;
79371;SDS011;68914;51.262;6.802;2023-07-29T02:35:24;9.67;;;4.00;;
79371;SDS011;68914;51.262;6.802;2023-07-29T02:36:25;7.00;;;4.10;;
79371;SDS011;68914;51.262;6.802;2023-07-29T02:37:26;9.00;;;4.68;;
79371;SDS011;68914;51.262;6.802;2023-07-29T02:38:27;8.03;;;4.20;;
79371;SDS011;68914;51.262;6.802;2023-07-29T02:39:27;6.88;;;4.05;;
79371;SDS011;68914;51.262;6.802;2023-07-29T02:40:28;8.38;;;4.30;;
79371;SDS011;68914;51.262;6.802;2023-07-29T02:41:29;7.87;;;4.20;;
79371;SDS011;68914;51.262;6.802;2023-07-29T02:42:30;12.45;;;4.10;;
79371;SDS011;68914;51.262;6.802;2023-07-29T02:43:31;9.23;;;4.00;;
79371;SDS011;68914;51.262;6.802;2023-07-29T02:44:31;6.63;;;3.70;;
79371;SDS011;68914;51.262;6.802;2023-07-29T02:45:32;8.02;;;4.00;;
79371;SDS011;68914;51.262;6.802;2023-07-29T02:46:32;8.30;;;4.13;;
79371;SDS011;68914;51.262;6.802;2023-07-29T02:47:33;7.50;;;4.18;;
79371;SDS011;68914;51.262;6.802;2023-07-29T02:48:34;7.00;;;3.93;;
79371;SDS011;68914;51.262;6.802;2023-07-29T02:49:34;6.93;;;4.20;;
79371;SDS011;68914;51.262;6.802;2023-07-29T02:50:35;8.77;;;4.17;;
79371;SDS011;68914;51.262;6.802;2023-07-29T02:51:36;7.78;;;4.10;;
79371;SDS011;68914;51.262;6.802;2023-07-29T02:52:36;8.30;;;4.10;;
79371;SDS011;68914;51.262;6.802;2023-07-29T02:53:37;10.35;;;3.95;;
79371;SDS011;68914;51.262;6.802;2023-07-29T02:54:38;8.77;;;4.07;;
79371;SDS011;68914;51.262;6.802;2023-07-29T02:55:41;7.70;;;3.95;;
79371;SDS011;68914;51.262;6.802;2023-07-29T02:56:42;7.38;;;3.85;;
79371;SDS011;68914;51.262;6.802;2023-07-29T02:57:43;6.88;;;3.65;;
79371;SDS011;68914;51.262;6.802;2023-07-29T02:58:43;7.43;;;4.00;;
79371;SDS011;68914;51.262;6.802;2023-07-29T02:59:45;8.55;;;4.00;;
79371;SDS011;68914;51.262;6.802;2023-07-29T03:00:45;7.70;;;3.90;;
79371;SDS011;68914;51.262;6.802;2023-07-29T03:01:48;6.70;;;3.53;;
79371;SDS011;68914;51.262;6.802;2023-07-29T03:02:49;8.43;;;4.00;;
79371;SDS011;68914;51.262;6.802;2023-07-29T03:03:50;8.43;;;4.10;;
79371;SDS011;68914;51.262;6.802;2023-07-29T03:04:51;7.40;;;4.03;;
79371;SDS011;68914;51.262;6.802;2023-07-29T03:05:57;8.50;;;3.83;;
79371;SDS011;68914;51.262;6.802;2023-07-29T03:07:08;7.38;;;3.65;;
79371;SDS011;68914;51.262;6.802;2023-07-29T03:08:08;8.13;;;3.83;;
79371;SDS011;68914;51.262;6.802;2023-07-29T03:09:09;7.47;;;3.70;;
79371;SDS011;68914;51.262;6.802;2023-07-29T03:10:10;8.73;;;3.60;;
79371;SDS011;68914;51.262;6.802;2023-07-29T03:11:14;6.60;;;3.50;;
79371;SDS011;68914;51.262;6.802;2023-07-29T03:12:16;7.25;;;3.63;;
79371;SDS011;68914;51.262;6.802;2023-07-29T03:13:16;9.40;;;3.70;;
79371;SDS011;68914;51.262;6.802;2023-07-29T03:14:17;7.30;;;3.57;;
79371;SDS011;68914;51.262;6.802;2023-07-29T03:15:18;5.80;;;3.17;;
79371;SDS011;68914;51.262;6.802;2023-07-29T03:16:18;7.70;;;3.60;;
79371;SDS011;68914;51.262;6.802;2023-07-29T03:17:27;6.53;;;3.37;;
79371;SDS011;68914;51.262;6.802;2023-07-29T03:18:28;7.38;;;3.20;;
79371;SDS011;68914;51.262;6.802;2023-07-29T03:19:28;6.68;;;3.20;;
79371;SDS011;68914;51.262;6.802;2023-07-29T03:20:29;7.17;;;3.50;;
79371;SDS011;68914;51.262;6.802;2023-07-29T03:21:29;8.67;;;3.50;;
79371;SDS011;68914;51.262;6.802;2023-07-29T03:22:30;7.80;;;3.57;;
79371;SDS011;68914;51.262;6.802;2023-07-29T03:23:32;6.68;;;3.08;;
79371;SDS011;68914;51.262;6.802;2023-07-29T03:24:34;6.70;;;3.30;;
79371;SDS011;68914;51.262;6.802;2023-07-29T03:25:35;7.85;;;3.35;;
79371;SDS011;68914;51.262;6.802;2023-07-29T03:26:35;6.50;;;3.13;;
79371;SDS011;68914;51.262;6.802;2023-07-29T03:27:36;6.68;;;3.10;;
79371;SDS011;68914;51.262;6.802;2023-07-29T03:28:40;8.15;;;3.15;;
79371;SDS011;68914;51.262;6.802;2023-07-29T03:29:42;6.35;;;3.13;;
79371;SDS011;68914;51.262;6.802;2023-07-29T03:30:43;7.70;;;3.20;;
79371;SDS011;68914;51.262;6.802;2023-07-29T03:31:43;6.82;;;3.30;;
79371;SDS011;68914;51.262;6.802;2023-07-29T03:32:44;6.83;;;3.37;;
79371;SDS011;68914;51.262;6.802;2023-07-29T03:33:48;7.05;;;3.45;;
79371;SDS011;68914;51.262;6.802;2023-07-29T03:34:48;7.28;;;3.20;;
79371;SDS011;68914;51.262;6.802;2023-07-29T03:35:49;6.93;;;3.30;;
79371;SDS011;68914;51.262;6.802;2023-07-29T03:36:50;6.43;;;3.40;;
79371;SDS011;68914;51.262;6.802;2023-07-29T03:37:51;7.07;;;3.40;;
79371;SDS011;68914;51.262;6.802;2023-07-29T03:38:52;7.47;;;3.60;;
79371;SDS011;68914;51.262;6.802;2023-07-29T03:39:53;7.32;;;3.60;;
79371;SDS011;68914;51.262;6.802;2023-07-29T03:40:53;5.95;;;3.22;;
79371;SDS011;68914;51.262;6.802;2023-07-29T03:41:54;7.93;;;3.47;;
79371;SDS011;68914;51.262;6.802;2023-07-29T03:42:55;7.50;;;3.53;;
79371;SDS011;68914;51.262;6.802;2023-07-29T03:43:55;7.63;;;3.70;;
79371;SDS011;68914;51.262;6.802;2023-07-29T03:44:56;9.02;;;4.25;;
79371;SDS011;68914;51.262;6.802;2023-07-29T03:45:57;8.10;;;3.27;;
79371;SDS011;68914;51.262;6.802;2023-07-29T03:46:57;6.50;;;3.47;;
79371;SDS011;68914;51.262;6.802;2023-07-29T03:47:58;7.63;;;3.27;;
79371;SDS011;68914;51.262;6.802;2023-07-29T03:48:59;9.25;;;3.50;;
79371;SDS011;68914;51.262;6.802;2023-07-29T03:49:59;6.50;;;3.60;;
79371;SDS011;68914;51.262;6.802;2023-07-29T03:51:00;6.80;;;3.53;;
79371;SDS011;68914;51.262;6.802;2023-07-29T03:52:01;9.15;;;4.00;;
79371;SDS011;68914;51.262;6.802;2023-07-29T03:53:02;6.93;;;3.60;;
79371;SDS011;68914;51.262;6.802;2023-07-29T03:54:03;8.48;;;3.85;;
79371;SDS011;68914;51.262;6.802;2023-07-29T03:55:04;8.73;;;4.03;;
79371;SDS011;68914;51.262;6.802;2023-07-29T03:56:05;9.05;;;4.05;;
79371;SDS011;68914;51.262;6.802;2023-07-29T03:57:05;7.83;;;4.10;;
79371;SDS011;68914;51.262;6.802;2023-07-29T03:58:06;8.13;;;3.88;;
79371;SDS011;68914;51.262;6.802;2023-07-29T03:59:07;9.37;;;3.80;;
79371;SDS011;68914;51.262;6.802;2023-07-29T04:00:08;9.95;;;4.10;;
79371;SDS011;68914;51.262;6.802;2023-07-29T04:01:21;9.32;;;3.70;;
79371;SDS011;68914;51.262;6.802;2023-07-29T04:02:21;7.50;;;3.90;;
79371;SDS011;68914;51.262;6.802;2023-07-29T04:03:22;9.70;;;4.07;;
79371;SDS011;68914;51.262;6.802;2023-07-29T04:04:25;7.25;;;3.90;;
79371;SDS011;68914;51.262;6.802;2023-07-29T04:05:26;9.02;;;3.80;;
79371;SDS011;68914;51.262;6.802;2023-07-29T04:06:28;8.13;;;3.83;;
79371;SDS011;68914;51.262;6.802;2023-07-29T04:07:29;7.45;;;3.65;;
79371;SDS011;68914;51.262;6.802;2023-07-29T04:08:30;7.80;;;3.60;;
79371;SDS011;68914;51.262;6.802;2023-07-29T04:09:31;7.90;;;3.80;;
79371;SDS011;68914;51.262;6.802;2023-07-29T04:10:32;8.00;;;3.72;;
79371;SDS011;68914;51.262;6.802;2023-07-29T04:11:32;8.80;;;3.60;;
79371;SDS011;68914;51.262;6.802;2023-07-29T04:12:33;6.65;;;3.70;;
79371;SDS011;68914;51.262;6.802;2023-07-29T04:13:34;7.60;;;3.67;;
79371;SDS011;68914;51.262;6.802;2023-07-29T04:14:35;7.57;;;3.77;;
79371;SDS011;68914;51.262;6.802;2023-07-29T04:15:35;7.93;;;3.92;;
79371;SDS011;68914;51.262;6.802;2023-07-29T04:16:36;6.50;;;3.70;;
79371;SDS011;68914;51.262;6.802;2023-07-29T04:17:37;7.32;;;3.90;;
79371;SDS011;68914;51.262;6.802;2023-07-29T04:18:38;8.65;;;3.92;;
79371;SDS011;68914;51.262;6.802;2023-07-29T04:19:39;8.35;;;3.75;;
79371;SDS011;68914;51.262;6.802;2023-07-29T04:20:39;8.80;;;4.00;;
79371;SDS011;68914;51.262;6.802;2023-07-29T04:21:40;13.50;;;7.70;;
79371;SDS011;68914;51.262;6.802;2023-07-29T04:22:41;12.27;;;6.87;;
79371;SDS011;68914;51.262;6.802;2023-07-29T04:23:41;14.30;;;9.02;;
79371;SDS011;68914;51.262;6.802;2023-07-29T04:24:42;7.83;;;4.13;;
79371;SDS011;68914;51.262;6.802;2023-07-29T04:25:43;7.63;;;3.88;;
79371;SDS011;68914;51.262;6.802;2023-07-29T04:26:43;9.00;;;3.90;;
79371;SDS011;68914;51.262;6.802;2023-07-29T04:27:45;7.57;;;3.83;;
79371;SDS011;68914;51.262;6.802;2023-07-29T04:28:45;9.30;;;3.70;;
79371;SDS011;68914;51.262;6.802;2023-07-29T04:29:46;7.07;;;3.50;;
79371;SDS011;68914;51.262;6.802;2023-07-29T04:30:46;8.25;;;3.80;;
79371;SDS011;68914;51.262;6.802;2023-07-29T04:31:47;7.87;;;3.63;;
79371;SDS011;68914;51.262;6.802;2023-07-29T04:32:49;7.18;;;3.60;;
79371;SDS011;68914;51.262;6.802;2023-07-29T04:33:50;7.65;;;3.90;;
79371;SDS011;68914;51.262;6.802;2023-07-29T04:34:51;8.52;;;3.78;;
79371;SDS011;68914;51.262;6.802;2023-07-29T04:35:52;7.72;;;4.20;;
79371;SDS011;68914;51.262;6.802;2023-07-29T04:36:52;8.73;;;3.90;;
79371;SDS011;68914;51.262;6.802;2023-07-29T04:37:53;10.63;;;5.68;;
79371;SDS011;68914;51.262;6.802;2023-07-29T04:38:53;7.50;;;3.90;;
79371;SDS011;68914;51.262;6.802;2023-07-29T04:39:54;9.75;;;4.22;;
79371;SDS011;68914;51.262;6.802;2023-07-29T04:40:55;6.27;;;3.40;;
79371;SDS011;68914;51.262;6.802;2023-07-29T04:41:55;8.53;;;3.57;;
79371;SDS011;68914;51.262;6.802;2023-07-29T04:42:57;8.47;;;3.70;;
79371;SDS011;68914;51.262;6.802;2023-07-29T04:44:00;6.60;;;3.53;;
79371;SDS011;68914;51.262;6.802;2023-07-29T04:45:00;7.65;;;3.90;;
79371;SDS011;68914;51.262;6.802;2023-07-29T04:46:01;8.27;;;4.00;;
79371;SDS011;68914;51.262;6.802;2023-07-29T04:47:02;9.63;;;4.20;;
79371;SDS011;68914;51.262;6.802;2023-07-29T04:48:02;6.63;;;3.75;;
79371;SDS011;68914;51.262;6.802;2023-07-29T04:49:03;7.77;;;3.70;;
79371;SDS011;68914;51.262;6.802;2023-07-29T04:50:05;8.50;;;3.78;;
79371;SDS011;68914;51.262;6.802;2023-07-29T04:51:06;8.93;;;3.70;;
79371;SDS011;68914;51.262;6.802;2023-07-29T04:52:07;8.02;;;4.10;;
79371;SDS011;68914;51.262;6.802;2023-07-29T04:53:08;14.02;;;8.55;;
79371;SDS011;68914;51.262;6.802;2023-07-29T04:54:08;13.90;;;8.20;;
79371;SDS011;68914;51.262;6.802;2023-07-29T04:55:09;8.60;;;4.55;;
79371;SDS011;68914;51.262;6.802;2023-07-29T04:56:09;7.50;;;3.90;;
79371;SDS011;68914;51.262;6.802;2023-07-29T04:57:10;6.78;;;3.78;;
79371;SDS011;68914;51.262;6.802;2023-07-29T04:58:11;8.53;;;4.13;;
79371;SDS011;68914;51.262;6.802;2023-07-29T04:59:11;9.00;;;3.90;;
79371;SDS011;68914;51.262;6.802;2023-07-29T05:00:13;9.63;;;4.43;;
79371;SDS011;68914;51.262;6.802;2023-07-29T05:01:13;8.87;;;4.27;;
79371;SDS011;68914;51.262;6.802;2023-07-29T05:02:14;7.28;;;3.92;;
79371;SDS011;68914;51.262;6.802;2023-07-29T05:03:15;7.22;;;3.88;;
79371;SDS011;68914;51.262;6.802;2023-07-29T05:04:16;7.53;;;3.75;;
79371;SDS011;68914;51.262;6.802;2023-07-29T05:05:17;8.53;;;3.80;;
79371;SDS011;68914;51.262;6.802;2023-07-29T05:06:18;8.20;;;4.05;;
79371;SDS011;68914;51.262;6.802;2023-07-29T05:07:18;8.65;;;3.80;;
79371;SDS011;68914;51.262;6.802;2023-07-29T05:08:19;8.80;;;3.67;;
79371;SDS011;68914;51.262;6.802;2023-07-29T05:09:20;6.85;;;3.45;;
79371;SDS011;68914;51.262;6.802;2023-07-29T05:10:22;8.03;;;3.83;;
79371;SDS011;68914;51.262;6.802;2023-07-29T05:11:22;7.10;;;3.40;;
79371;SDS011;68914;51.262;6.802;2023-07-29T05:12:25;6.93;;;3.40;;
79371;SDS011;68914;51.262;6.802;2023-07-29T05:13:26;8.50;;;3.60;;
79371;SDS011;68914;51.262;6.802;2023-07-29T05:14:26;6.53;;;3.30;;
79371;SDS011;68914;51.262;6.802;2023-07-29T05:15:27;7.70;;;3.90;;
79371;SDS011;68914;51.262;6.802;2023-07-29T05:16:28;7.37;;;3.80;;
79371;SDS011;68914;51.262;6.802;2023-07-29T05:17:28;7.57;;;3.33;;
79371;SDS011;68914;51.262;6.802;2023-07-29T05:18:29;6.63;;;3.57;;
79371;SDS011;68914;51.262;6.802;2023-07-29T05:19:29;6.45;;;3.50;;
79371;SDS011;68914;51.262;6.802;2023-07-29T05:20:30;8.17;;;3.60;;
79371;SDS011;68914;51.262;6.802;2023-07-29T05:21:31;6.45;;;3.50;;
79371;SDS011;68914;51.262;6.802;2023-07-29T05:22:32;6.60;;;3.33;;
79371;SDS011;68914;51.262;6.802;2023-07-29T05:23:32;7.23;;;3.50;;
79371;SDS011;68914;51.262;6.802;2023-07-29T05:24:33;6.65;;;3.38;;
79371;SDS011;68914;51.262;6.802;2023-07-29T05:25:33;8.20;;;3.63;;
79371;SDS011;68914;51.262;6.802;2023-07-29T05:26:37;7.28;;;3.60;;
79371;SDS011;68914;51.262;6.802;2023-07-29T05:27:37;8.95;;;3.55;;
79371;SDS011;68914;51.262;6.802;2023-07-29T05:28:38;8.27;;;3.50;;
79371;SDS011;68914;51.262;6.802;2023-07-29T05:29:39;7.50;;;3.67;;
79371;SDS011;68914;51.262;6.802;2023-07-29T05:30:39;8.03;;;3.57;;
79371;SDS011;68914;51.262;6.802;2023-07-29T05:31:41;8.18;;;3.67;;
79371;SDS011;68914;51.262;6.802;2023-07-29T05:32:42;8.32;;;3.75;;
79371;SDS011;68914;51.262;6.802;2023-07-29T05:33:42;7.40;;;3.80;;
79371;SDS011;68914;51.262;6.802;2023-07-29T05:34:43;8.00;;;3.78;;
79371;SDS011;68914;51.262;6.802;2023-07-29T05:35:43;8.13;;;3.60;;
79371;SDS011;68914;51.262;6.802;2023-07-29T05:36:45;7.50;;;3.83;;
79371;SDS011;68914;51.262;6.802;2023-07-29T05:37:45;7.20;;;3.47;;
79371;SDS011;68914;51.262;6.802;2023-07-29T05:38:46;8.77;;;3.80;;
79371;SDS011;68914;51.262;6.802;2023-07-29T05:39:47;7.95;;;3.97;;
79371;SDS011;68914;51.262;6.802;2023-07-29T05:40:48;7.00;;;3.67;;
79371;SDS011;68914;51.262;6.802;2023-07-29T05:41:49;8.73;;;3.67;;
79371;SDS011;68914;51.262;6.802;2023-07-29T05:42:50;6.80;;;3.37;;
79371;SDS011;68914;51.262;6.802;2023-07-29T05:43:50;7.78;;;3.58;;
79371;SDS011;68914;51.262;6.802;2023-07-29T05:44:51;8.33;;;3.90;;
79371;SDS011;68914;51.262;6.802;2023-07-29T05:45:54;7.70;;;3.85;;
79371;SDS011;68914;51.262;6.802;2023-07-29T05:46:56;8.23;;;4.10;;
79371;SDS011;68914;51.262;6.802;2023-07-29T05:47:57;8.32;;;3.97;;
79371;SDS011;68914;51.262;6.802;2023-07-29T05:48:57;7.32;;;3.92;;
79371;SDS011;68914;51.262;6.802;2023-07-29T05:49:58;7.60;;;4.20;;
79371;SDS011;68914;51.262;6.802;2023-07-29T05:51:00;9.18;;;4.07;;
79371;SDS011;68914;51.262;6.802;2023-07-29T05:52:01;7.55;;;3.95;;
79371;SDS011;68914;51.262;6.802;2023-07-29T05:53:02;8.07;;;3.88;;
79371;SDS011;68914;51.262;6.802;2023-07-29T05:54:03;7.43;;;3.80;;
79371;SDS011;68914;51.262;6.802;2023-07-29T05:55:03;9.05;;;3.78;;
79371;SDS011;68914;51.262;6.802;2023-07-29T05:56:05;8.90;;;3.70;;
79371;SDS011;68914;51.262;6.802;2023-07-29T05:57:06;7.57;;;3.70;;
79371;SDS011;68914;51.262;6.802;2023-07-29T05:58:06;8.15;;;3.60;;
79371;SDS011;68914;51.262;6.802;2023-07-29T05:59:07;8.50;;;4.00;;
79371;SDS011;68914;51.262;6.802;2023-07-29T06:00:08;7.47;;;3.30;;
79371;SDS011;68914;51.262;6.802;2023-07-29T06:01:15;7.63;;;3.55;;
79371;SDS011;68914;51.262;6.802;2023-07-29T06:02:16;6.75;;;3.33;;
79371;SDS011;68914;51.262;6.802;2023-07-29T06:03:16;7.10;;;3.30;;
79371;SDS011;68914;51.262;6.802;2023-07-29T06:04:17;6.60;;;3.17;;
79371;SDS011;68914;51.262;6.802;2023-07-29T06:05:18;7.97;;;3.53;;
79371;SDS011;68914;51.262;6.802;2023-07-29T06:06:18;6.60;;;3.40;;
79371;SDS011;68914;51.262;6.802;2023-07-29T06:07:19;7.97;;;3.10;;
79371;SDS011;68914;51.262;6.802;2023-07-29T06:08:19;6.30;;;3.05;;
79371;SDS011;68914;51.262;6.802;2023-07-29T06:09:21;6.90;;;3.10;;
79371;SDS011;68914;51.262;6.802;2023-07-29T06:10:22;7.35;;;3.40;;
79371;SDS011;68914;51.262;6.802;2023-07-29T06:11:23;6.53;;;2.60;;
79371;SDS011;68914;51.262;6.802;2023-07-29T06:12:24;6.70;;;2.90;;
79371;SDS011;68914;51.262;6.802;2023-07-29T06:13:25;6.60;;;2.80;;
79371;SDS011;68914;51.262;6.802;2023-07-29T06:14:26;7.45;;;3.55;;
79371;SDS011;68914;51.262;6.802;2023-07-29T06:15:27;6.27;;;3.10;;
79371;SDS011;68914;51.262;6.802;2023-07-29T06:16:27;7.85;;;3.20;;
79371;SDS011;68914;51.262;6.802;2023-07-29T06:17:28;6.27;;;2.80;;
79371;SDS011;68914;51.262;6.802;2023-07-29T06:18:28;7.20;;;2.83;;
79371;SDS011;68914;51.262;6.802;2023-07-29T06:19:29;6.47;;;2.30;;